sensor_id;sensor_type;location;lat;lon;timestamp;pressure;altitude;pressure_sealevel;temperature;humidity
45285;BME280;31026;43.780;25.948;2022-12-16T00:01:21;100803.00;;;17.67;68.85
45285;BME280;31026;43.780;25.948;2022-12-16T00:03:50;100834.75;;;17.49;69.77
45285;BME280;31026;43.780;25.948;2022-12-16T00:06:19;100812.91;;;17.33;69.98
45285;BME280;31026;43.780;25.948;2022-12-16T00:08:51;100800.50;;;17.21;70.23
45285;BME280;31026;43.780;25.948;2022-12-16T00:11:19;100818.03;;;17.14;70.50
45285;BME280;31026;43.780;25.948;2022-12-16T00:13:47;100808.81;;;16.95;70.77
45285;BME280;31026;43.780;25.948;2022-12-16T00:16:16;100817.75;;;16.83;71.14
45285;BME280;31026;43.780;25.948;2022-12-16T00:18:45;100814.25;;;16.82;70.93
45285;BME280;31026;43.780;25.948;2022-12-16T00:21:14;100846.84;;;16.75;71.14
45285;BME280;31026;43.780;25.948;2022-12-16T00:23:42;100818.56;;;16.72;71.11
45285;BME280;31026;43.780;25.948;2022-12-16T00:26:14;100808.00;;;16.70;71.16
45285;BME280;31026;43.780;25.948;2022-12-16T00:28:42;100810.66;;;16.70;71.01
45285;BME280;31026;43.780;25.948;2022-12-16T00:31:10;100833.75;;;16.72;71.06
45285;BME280;31026;43.780;25.948;2022-12-16T00:33:39;100816.25;;;16.67;70.79
45285;BME280;31026;43.780;25.948;2022-12-16T00:36:08;100802.19;;;16.65;70.90
45285;BME280;31026;43.780;25.948;2022-12-16T00:38:36;100802.44;;;16.74;70.56
45285;BME280;31026;43.780;25.948;2022-12-16T00:41:05;100799.84;;;16.61;70.92
45285;BME280;31026;43.780;25.948;2022-12-16T00:43:36;100799.25;;;16.68;70.84
45285;BME280;31026;43.780;25.948;2022-12-16T00:46:04;100794.53;;;17.28;69.26
45285;BME280;31026;43.780;25.948;2022-12-16T00:48:32;100791.59;;;17.98;66.99
45285;BME280;31026;43.780;25.948;2022-12-16T00:51:01;100797.22;;;18.79;64.94
45285;BME280;31026;43.780;25.948;2022-12-16T00:53:29;100795.78;;;19.36;63.01
45285;BME280;31026;43.780;25.948;2022-12-16T00:56:01;100784.81;;;19.59;62.22
45285;BME280;31026;43.780;25.948;2022-12-16T00:58:30;100774.56;;;19.74;61.95
45285;BME280;31026;43.780;25.948;2022-12-16T01:01:01;100772.41;;;19.77;61.91
45285;BME280;31026;43.780;25.948;2022-12-16T01:03:29;100776.25;;;19.15;63.62
45285;BME280;31026;43.780;25.948;2022-12-16T01:05:57;100763.34;;;18.26;66.11
45285;BME280;31026;43.780;25.948;2022-12-16T01:08:26;100754.09;;;17.77;67.38
45285;BME280;31026;43.780;25.948;2022-12-16T01:10:55;100778.34;;;17.53;68.22
45285;BME280;31026;43.780;25.948;2022-12-16T01:13:24;100771.31;;;17.40;68.39
45285;BME280;31026;43.780;25.948;2022-12-16T01:15:52;100750.44;;;17.23;69.07
45285;BME280;31026;43.780;25.948;2022-12-16T01:18:23;100753.78;;;17.15;68.85
45285;BME280;31026;43.780;25.948;2022-12-16T01:20:52;100758.97;;;17.17;68.59
45285;BME280;31026;43.780;25.948;2022-12-16T01:23:20;100762.63;;;17.04;69.24
45285;BME280;31026;43.780;25.948;2022-12-16T01:25:50;100757.06;;;16.96;69.20
45285;BME280;31026;43.780;25.948;2022-12-16T01:28:19;100764.84;;;16.88;69.27
45285;BME280;31026;43.780;25.948;2022-12-16T01:30:47;100767.38;;;16.89;69.26
45285;BME280;31026;43.780;25.948;2022-12-16T01:33:16;100772.56;;;16.80;69.52
45285;BME280;31026;43.780;25.948;2022-12-16T01:35:47;100777.41;;;16.75;69.45
45285;BME280;31026;43.780;25.948;2022-12-16T01:38:15;100783.00;;;16.72;69.82
45285;BME280;31026;43.780;25.948;2022-12-16T01:40:43;100789.19;;;16.72;69.47
45285;BME280;31026;43.780;25.948;2022-12-16T01:43:12;100781.06;;;16.74;69.66
45285;BME280;31026;43.780;25.948;2022-12-16T01:45:41;100778.16;;;16.65;69.63
45285;BME280;31026;43.780;25.948;2022-12-16T01:48:13;100779.38;;;16.61;69.82
45285;BME280;31026;43.780;25.948;2022-12-16T01:50:43;100784.56;;;16.63;69.87
45285;BME280;31026;43.780;25.948;2022-12-16T01:53:15;100773.28;;;16.59;69.65
45285;BME280;31026;43.780;25.948;2022-12-16T01:55:45;100771.88;;;17.12;68.40
45285;BME280;31026;43.780;25.948;2022-12-16T01:58:15;100772.44;;;17.93;66.27
45285;BME280;31026;43.780;25.948;2022-12-16T02:00:45;100767.28;;;18.74;63.69
45285;BME280;31026;43.780;25.948;2022-12-16T02:03:14;100763.56;;;19.26;61.98
45285;BME280;31026;43.780;25.948;2022-12-16T02:05:43;100778.03;;;19.55;61.16
45285;BME280;31026;43.780;25.948;2022-12-16T02:08:12;100765.94;;;19.80;60.63
45285;BME280;31026;43.780;25.948;2022-12-16T02:13:34;100756.78;;;19.13;62.30
45285;BME280;31026;43.780;25.948;2022-12-16T02:16:10;100753.53;;;18.26;64.66
45285;BME280;31026;43.780;25.948;2022-12-16T02:18:42;100744.59;;;17.84;65.84
45285;BME280;31026;43.780;25.948;2022-12-16T02:21:16;100731.69;;;17.57;66.39
45285;BME280;31026;43.780;25.948;2022-12-16T02:23:58;100712.50;;;17.40;67.08
45285;BME280;31026;43.780;25.948;2022-12-16T02:26:34;100701.41;;;17.24;67.12
45285;BME280;31026;43.780;25.948;2022-12-16T02:29:19;100699.94;;;17.20;67.40
45285;BME280;31026;43.780;25.948;2022-12-16T02:31:59;100708.59;;;17.12;67.56
45285;BME280;31026;43.780;25.948;2022-12-16T02:34:35;100702.06;;;16.94;68.01
45285;BME280;31026;43.780;25.948;2022-12-16T02:37:10;100704.75;;;16.94;67.93
45285;BME280;31026;43.780;25.948;2022-12-16T02:39:41;100709.69;;;16.87;68.33
45285;BME280;31026;43.780;25.948;2022-12-16T02:42:14;100723.31;;;16.84;68.12
45285;BME280;31026;43.780;25.948;2022-12-16T02:44:47;100724.16;;;16.84;68.27
45285;BME280;31026;43.780;25.948;2022-12-16T02:47:20;100724.28;;;16.72;68.27
45285;BME280;31026;43.780;25.948;2022-12-16T02:49:49;100721.34;;;16.75;68.32
45285;BME280;31026;43.780;25.948;2022-12-16T02:52:19;100713.31;;;16.75;68.21
45285;BME280;31026;43.780;25.948;2022-12-16T02:54:48;100699.00;;;16.64;68.39
45285;BME280;31026;43.780;25.948;2022-12-16T03:00:07;100703.50;;;16.64;68.26
45285;BME280;31026;43.780;25.948;2022-12-16T03:02:40;100692.22;;;16.60;68.42
45285;BME280;31026;43.780;25.948;2022-12-16T03:05:13;100688.72;;;16.94;67.63
45285;BME280;31026;43.780;25.948;2022-12-16T03:07:44;100674.50;;;17.69;65.14
45285;BME280;31026;43.780;25.948;2022-12-16T03:10:15;100698.69;;;18.52;63.04
45285;BME280;31026;43.780;25.948;2022-12-16T03:12:44;100671.00;;;19.22;60.98
45285;BME280;31026;43.780;25.948;2022-12-16T03:15:16;100676.41;;;19.42;60.63
45285;BME280;31026;43.780;25.948;2022-12-16T03:17:47;100688.25;;;19.68;59.64
45285;BME280;31026;43.780;25.948;2022-12-16T03:20:18;100661.44;;;19.78;59.00
45285;BME280;31026;43.780;25.948;2022-12-16T03:22:48;100682.31;;;19.84;59.45
45285;BME280;31026;43.780;25.948;2022-12-16T03:25:18;100715.81;;;19.90;59.59
45285;BME280;31026;43.780;25.948;2022-12-16T03:27:50;100687.53;;;19.66;60.45
45285;BME280;31026;43.780;25.948;2022-12-16T03:30:22;100686.69;;;19.46;61.11
45285;BME280;31026;43.780;25.948;2022-12-16T03:32:57;100687.34;;;19.10;61.87
45285;BME280;31026;43.780;25.948;2022-12-16T03:35:28;100702.25;;;18.31;63.71
45285;BME280;31026;43.780;25.948;2022-12-16T03:37:58;100682.72;;;17.77;65.17
45285;BME280;31026;43.780;25.948;2022-12-16T03:40:28;100676.50;;;17.56;65.67
45285;BME280;31026;43.780;25.948;2022-12-16T03:42:56;100689.69;;;17.36;66.05
45285;BME280;31026;43.780;25.948;2022-12-16T03:45:26;100671.97;;;17.35;66.43
45285;BME280;31026;43.780;25.948;2022-12-16T03:47:58;100697.50;;;17.28;66.25
45285;BME280;31026;43.780;25.948;2022-12-16T03:50:27;100698.38;;;17.17;66.41
45285;BME280;31026;43.780;25.948;2022-12-16T03:52:57;100703.63;;;17.07;66.46
45285;BME280;31026;43.780;25.948;2022-12-16T03:55:25;100697.78;;;17.02;66.69
45285;BME280;31026;43.780;25.948;2022-12-16T03:57:54;100712.88;;;16.92;67.38
45285;BME280;31026;43.780;25.948;2022-12-16T04:00:22;100709.97;;;16.84;67.89
45285;BME280;31026;43.780;25.948;2022-12-16T04:02:51;100700.84;;;16.75;68.20
45285;BME280;31026;43.780;25.948;2022-12-16T04:05:22;100699.50;;;16.69;68.78
45285;BME280;31026;43.780;25.948;2022-12-16T04:07:50;100704.25;;;16.66;69.12
45285;BME280;31026;43.780;25.948;2022-12-16T04:10:18;100696.72;;;16.60;69.36
45285;BME280;31026;43.780;25.948;2022-12-16T04:13:08;100686.88;;;16.60;69.58
45285;BME280;31026;43.780;25.948;2022-12-16T04:15:51;100709.56;;;16.55;69.63
45285;BME280;31026;43.780;25.948;2022-12-16T04:18:32;100695.50;;;16.53;69.67
45285;BME280;31026;43.780;25.948;2022-12-16T04:21:16;100686.53;;;16.54;69.95
45285;BME280;31026;43.780;25.948;2022-12-16T04:23:57;100696.59;;;16.50;70.07
45285;BME280;31026;43.780;25.948;2022-12-16T04:26:37;100689.00;;;17.23;68.21
45285;BME280;31026;43.780;25.948;2022-12-16T04:29:18;100699.72;;;17.87;66.14
45285;BME280;31026;43.780;25.948;2022-12-16T04:31:47;100684.28;;;18.22;65.46
45285;BME280;31026;43.780;25.948;2022-12-16T04:34:15;100677.94;;;18.44;65.24
45285;BME280;31026;43.780;25.948;2022-12-16T04:36:52;100671.41;;;19.18;64.32
45285;BME280;31026;43.780;25.948;2022-12-16T04:39:33;100679.34;;;19.48;64.44
45285;BME280;31026;43.780;25.948;2022-12-16T04:42:14;100673.16;;;19.58;64.38
45285;BME280;31026;43.780;25.948;2022-12-16T04:44:55;100682.59;;;19.62;64.97
45285;BME280;31026;43.780;25.948;2022-12-16T04:47:37;100661.44;;;19.78;64.91
45285;BME280;31026;43.780;25.948;2022-12-16T04:50:18;100673.97;;;19.97;63.92
45285;BME280;31026;43.780;25.948;2022-12-16T04:53:01;100668.06;;;19.55;65.19
45285;BME280;31026;43.780;25.948;2022-12-16T04:55:42;100679.19;;;19.31;66.42
45285;BME280;31026;43.780;25.948;2022-12-16T04:58:22;100683.44;;;19.43;66.55
45285;BME280;31026;43.780;25.948;2022-12-16T05:01:03;100673.28;;;19.46;66.61
45285;BME280;31026;43.780;25.948;2022-12-16T05:03:44;100666.50;;;19.62;66.80
45285;BME280;31026;43.780;25.948;2022-12-16T05:06:25;100681.91;;;19.50;67.51
45285;BME280;31026;43.780;25.948;2022-12-16T05:09:08;100678.66;;;19.46;67.43
45285;BME280;31026;43.780;25.948;2022-12-16T05:11:49;100646.31;;;19.48;67.51
45285;BME280;31026;43.780;25.948;2022-12-16T05:14:29;100644.34;;;19.60;67.29
45285;BME280;31026;43.780;25.948;2022-12-16T05:17:10;100634.59;;;19.39;67.44
45285;BME280;31026;43.780;25.948;2022-12-16T05:19:51;100634.75;;;19.18;68.04
45285;BME280;31026;43.780;25.948;2022-12-16T05:22:32;100655.16;;;19.10;68.14
45285;BME280;31026;43.780;25.948;2022-12-16T05:25:15;100690.72;;;19.12;68.17
45285;BME280;31026;43.780;25.948;2022-12-16T05:27:56;100696.09;;;19.12;67.95
45285;BME280;31026;43.780;25.948;2022-12-16T05:30:37;100684.94;;;18.97;68.23
45285;BME280;31026;43.780;25.948;2022-12-16T05:33:18;100674.50;;;19.03;68.21
45285;BME280;31026;43.780;25.948;2022-12-16T05:35:59;100671.41;;;19.08;67.82
45285;BME280;31026;43.780;25.948;2022-12-16T05:38:40;100697.38;;;18.77;69.60
45285;BME280;31026;43.780;25.948;2022-12-16T05:41:23;100697.81;;;18.20;71.18
45285;BME280;31026;43.780;25.948;2022-12-16T05:44:04;100695.56;;;17.95;72.28
45285;BME280;31026;43.780;25.948;2022-12-16T05:46:45;100705.91;;;17.56;72.59
45285;BME280;31026;43.780;25.948;2022-12-16T05:49:26;100694.94;;;17.26;71.51
45285;BME280;31026;43.780;25.948;2022-12-16T05:52:07;100708.91;;;17.19;73.47
45285;BME280;31026;43.780;25.948;2022-12-16T05:54:47;100729.78;;;17.36;73.85
45285;BME280;31026;43.780;25.948;2022-12-16T05:57:31;100746.06;;;18.09;71.22
45285;BME280;31026;43.780;25.948;2022-12-16T06:00:12;100717.75;;;18.58;69.50
45285;BME280;31026;43.780;25.948;2022-12-16T06:02:54;100715.06;;;18.89;67.83
45285;BME280;31026;43.780;25.948;2022-12-16T06:05:35;100735.63;;;19.29;66.93
45285;BME280;31026;43.780;25.948;2022-12-16T06:08:15;100733.72;;;19.60;65.51
45285;BME280;31026;43.780;25.948;2022-12-16T06:10:56;100740.09;;;19.89;64.55
45285;BME280;31026;43.780;25.948;2022-12-16T06:13:39;100714.91;;;19.41;66.01
45285;BME280;31026;43.780;25.948;2022-12-16T06:16:26;100709.97;;;19.36;65.25
45285;BME280;31026;43.780;25.948;2022-12-16T06:19:15;100712.78;;;19.25;65.47
45285;BME280;31026;43.780;25.948;2022-12-16T06:21:56;100716.44;;;19.34;64.85
45285;BME280;31026;43.780;25.948;2022-12-16T06:24:37;100687.50;;;19.08;63.66
45285;BME280;31026;43.780;25.948;2022-12-16T06:27:17;100690.97;;;18.89;64.13
45285;BME280;31026;43.780;25.948;2022-12-16T06:30:01;100674.25;;;18.76;64.68
45285;BME280;31026;43.780;25.948;2022-12-16T06:32:42;100691.28;;;18.65;65.15
45285;BME280;31026;43.780;25.948;2022-12-16T06:35:23;100702.13;;;18.63;65.28
45285;BME280;31026;43.780;25.948;2022-12-16T06:38:15;100716.50;;;18.62;65.70
45285;BME280;31026;43.780;25.948;2022-12-16T06:41:01;100748.66;;;18.62;65.61
45285;BME280;31026;43.780;25.948;2022-12-16T06:43:45;100766.16;;;18.66;65.54
45285;BME280;31026;43.780;25.948;2022-12-16T06:46:41;100776.16;;;18.64;66.07
45285;BME280;31026;43.780;25.948;2022-12-16T06:49:21;100793.50;;;18.70;65.69
45285;BME280;31026;43.780;25.948;2022-12-16T06:52:03;100776.31;;;18.73;65.68
45285;BME280;31026;43.780;25.948;2022-12-16T06:54:44;100765.31;;;18.76;65.65
45285;BME280;31026;43.780;25.948;2022-12-16T06:57:26;100775.28;;;18.85;65.48
45285;BME280;31026;43.780;25.948;2022-12-16T07:00:07;100786.13;;;18.83;65.39
45285;BME280;31026;43.780;25.948;2022-12-16T07:02:50;100796.19;;;18.91;65.49
45285;BME280;31026;43.780;25.948;2022-12-16T07:05:31;100772.00;;;18.81;65.70
45285;BME280;31026;43.780;25.948;2022-12-16T07:08:12;100787.97;;;18.83;65.62
45285;BME280;31026;43.780;25.948;2022-12-16T07:10:53;100779.13;;;18.71;66.12
45285;BME280;31026;43.780;25.948;2022-12-16T07:13:33;100790.34;;;18.86;65.92
45285;BME280;31026;43.780;25.948;2022-12-16T07:16:14;100798.59;;;18.94;65.48
45285;BME280;31026;43.780;25.948;2022-12-16T07:18:58;100822.13;;;18.91;65.64
45285;BME280;31026;43.780;25.948;2022-12-16T07:21:38;100808.16;;;18.87;65.92
45285;BME280;31026;43.780;25.948;2022-12-16T07:24:20;100809.66;;;18.80;65.95
45285;BME280;31026;43.780;25.948;2022-12-16T07:27:01;100809.69;;;18.90;65.67
45285;BME280;31026;43.780;25.948;2022-12-16T07:29:41;100828.66;;;18.77;65.85
45285;BME280;31026;43.780;25.948;2022-12-16T07:32:22;100828.28;;;18.81;65.95
45285;BME280;31026;43.780;25.948;2022-12-16T07:35:06;100842.13;;;18.86;65.72
45285;BME280;31026;43.780;25.948;2022-12-16T07:37:46;100837.22;;;18.92;65.62
45285;BME280;31026;43.780;25.948;2022-12-16T07:40:38;100836.66;;;18.88;65.66
45285;BME280;31026;43.780;25.948;2022-12-16T07:43:19;100834.22;;;18.85;65.62
45285;BME280;31026;43.780;25.948;2022-12-16T07:46:00;100837.63;;;18.87;65.49
45285;BME280;31026;43.780;25.948;2022-12-16T07:48:41;100812.78;;;18.85;65.58
45285;BME280;31026;43.780;25.948;2022-12-16T07:51:24;100809.84;;;18.88;65.36
45285;BME280;31026;43.780;25.948;2022-12-16T07:54:05;100808.28;;;18.85;65.40
45285;BME280;31026;43.780;25.948;2022-12-16T07:56:46;100794.50;;;18.90;65.15
45285;BME280;31026;43.780;25.948;2022-12-16T07:59:26;100786.63;;;18.98;64.79
45285;BME280;31026;43.780;25.948;2022-12-16T08:02:07;100800.09;;;18.87;65.51
45285;BME280;31026;43.780;25.948;2022-12-16T08:04:48;100805.25;;;18.79;65.46
45285;BME280;31026;43.780;25.948;2022-12-16T08:07:31;100800.81;;;18.89;64.92
45285;BME280;31026;43.780;25.948;2022-12-16T08:10:12;100792.31;;;18.84;65.20
45285;BME280;31026;43.780;25.948;2022-12-16T08:12:57;100836.56;;;18.78;65.33
45285;BME280;31026;43.780;25.948;2022-12-16T08:15:38;100848.03;;;18.80;65.64
45285;BME280;31026;43.780;25.948;2022-12-16T08:18:19;100810.16;;;18.74;65.54
45285;BME280;31026;43.780;25.948;2022-12-16T08:21:00;100806.22;;;18.78;65.80
45285;BME280;31026;43.780;25.948;2022-12-16T08:23:43;100789.50;;;18.85;65.42
45285;BME280;31026;43.780;25.948;2022-12-16T08:26:23;100808.81;;;18.79;65.66
45285;BME280;31026;43.780;25.948;2022-12-16T08:29:04;100844.94;;;18.85;65.49
45285;BME280;31026;43.780;25.948;2022-12-16T08:31:45;100844.97;;;18.74;65.59
45285;BME280;31026;43.780;25.948;2022-12-16T08:34:25;100849.59;;;18.83;65.42
45285;BME280;31026;43.780;25.948;2022-12-16T08:37:06;100858.81;;;18.90;65.46
45285;BME280;31026;43.780;25.948;2022-12-16T08:39:49;100836.91;;;18.85;65.62
45285;BME280;31026;43.780;25.948;2022-12-16T08:42:31;100830.13;;;18.81;65.62
45285;BME280;31026;43.780;25.948;2022-12-16T08:45:12;100841.91;;;18.78;65.62
45285;BME280;31026;43.780;25.948;2022-12-16T08:47:53;100836.44;;;18.80;65.73
45285;BME280;31026;43.780;25.948;2022-12-16T08:50:35;100809.56;;;18.91;65.42
45285;BME280;31026;43.780;25.948;2022-12-16T08:53:15;100830.56;;;18.86;65.51
45285;BME280;31026;43.780;25.948;2022-12-16T08:55:59;100818.41;;;18.82;65.45
45285;BME280;31026;43.780;25.948;2022-12-16T08:58:39;100825.94;;;18.88;65.77
45285;BME280;31026;43.780;25.948;2022-12-16T09:01:20;100830.28;;;18.89;65.48
45285;BME280;31026;43.780;25.948;2022-12-16T09:04:01;100842.66;;;18.80;66.01
45285;BME280;31026;43.780;25.948;2022-12-16T09:06:42;100820.63;;;18.77;66.07
45285;BME280;31026;43.780;25.948;2022-12-16T09:09:22;100827.16;;;18.84;65.69
45285;BME280;31026;43.780;25.948;2022-12-16T09:12:06;100857.94;;;18.90;65.69
45285;BME280;31026;43.780;25.948;2022-12-16T09:14:47;100852.25;;;18.83;65.88
45285;BME280;31026;43.780;25.948;2022-12-16T09:17:27;100850.81;;;18.79;66.09
45285;BME280;31026;43.780;25.948;2022-12-16T09:20:08;100831.59;;;18.74;66.07
45285;BME280;31026;43.780;25.948;2022-12-16T09:23:04;100823.81;;;18.71;66.42
45285;BME280;31026;43.780;25.948;2022-12-16T09:25:45;100827.66;;;18.78;66.16
45285;BME280;31026;43.780;25.948;2022-12-16T09:28:28;100807.44;;;18.85;65.92
45285;BME280;31026;43.780;25.948;2022-12-16T09:31:09;100798.69;;;18.83;65.99
45285;BME280;31026;43.780;25.948;2022-12-16T09:33:49;100785.75;;;18.88;65.85
45285;BME280;31026;43.780;25.948;2022-12-16T09:36:30;100784.91;;;18.97;65.55
45285;BME280;31026;43.780;25.948;2022-12-16T09:39:11;100781.09;;;19.00;65.06
45285;BME280;31026;43.780;25.948;2022-12-16T09:41:54;100794.09;;;18.95;65.51
45285;BME280;31026;43.780;25.948;2022-12-16T09:44:45;100800.88;;;18.99;65.76
45285;BME280;31026;43.780;25.948;2022-12-16T09:47:32;100805.38;;;18.98;65.75
45285;BME280;31026;43.780;25.948;2022-12-16T09:50:17;100808.31;;;18.95;65.66
45285;BME280;31026;43.780;25.948;2022-12-16T09:52:59;100802.13;;;18.95;66.04
45285;BME280;31026;43.780;25.948;2022-12-16T09:55:41;100789.13;;;18.90;65.70
45285;BME280;31026;43.780;25.948;2022-12-16T09:58:24;100774.50;;;18.94;65.83
45285;BME280;31026;43.780;25.948;2022-12-16T10:01:09;100758.69;;;19.01;65.52
45285;BME280;31026;43.780;25.948;2022-12-16T10:03:51;100752.75;;;18.97;65.67
45285;BME280;31026;43.780;25.948;2022-12-16T10:06:34;100747.81;;;18.93;66.02
45285;BME280;31026;43.780;25.948;2022-12-16T10:09:19;100706.50;;;18.95;65.87
45285;BME280;31026;43.780;25.948;2022-12-16T10:12:06;100673.91;;;18.90;65.88
45285;BME280;31026;43.780;25.948;2022-12-16T10:14:50;100709.31;;;18.94;65.95
45285;BME280;31026;43.780;25.948;2022-12-16T10:17:39;100702.69;;;18.98;65.69
45285;BME280;31026;43.780;25.948;2022-12-16T10:20:24;100723.59;;;19.04;65.48
45285;BME280;31026;43.780;25.948;2022-12-16T10:23:21;100725.97;;;18.97;65.58
45285;BME280;31026;43.780;25.948;2022-12-16T10:26:04;100728.22;;;19.02;65.51
45285;BME280;31026;43.780;25.948;2022-12-16T10:28:49;100734.44;;;19.02;65.58
45285;BME280;31026;43.780;25.948;2022-12-16T10:31:32;100745.75;;;19.16;65.19
45285;BME280;31026;43.780;25.948;2022-12-16T10:34:17;100750.84;;;19.19;64.94
45285;BME280;31026;43.780;25.948;2022-12-16T10:36:59;100730.69;;;19.24;65.09
45285;BME280;31026;43.780;25.948;2022-12-16T10:39:40;100717.69;;;19.10;65.13
45285;BME280;31026;43.780;25.948;2022-12-16T10:42:25;100728.25;;;19.12;65.05
45285;BME280;31026;43.780;25.948;2022-12-16T10:45:12;100707.53;;;19.04;65.33
45285;BME280;31026;43.780;25.948;2022-12-16T10:47:56;100706.44;;;19.26;64.73
45285;BME280;31026;43.780;25.948;2022-12-16T10:50:39;100676.50;;;19.21;64.75
45285;BME280;31026;43.780;25.948;2022-12-16T10:53:24;100682.69;;;19.21;64.64
45285;BME280;31026;43.780;25.948;2022-12-16T10:56:10;100685.97;;;19.25;64.67
45285;BME280;31026;43.780;25.948;2022-12-16T10:58:53;100695.00;;;19.24;64.90
45285;BME280;31026;43.780;25.948;2022-12-16T11:01:34;100685.09;;;19.15;64.91
45285;BME280;31026;43.780;25.948;2022-12-16T11:04:31;100703.56;;;19.18;64.94
45285;BME280;31026;43.780;25.948;2022-12-16T11:07:25;100686.38;;;19.11;65.04
45285;BME280;31026;43.780;25.948;2022-12-16T11:10:20;100723.63;;;19.23;64.69
45285;BME280;31026;43.780;25.948;2022-12-16T11:13:08;100715.63;;;19.53;63.83
45285;BME280;31026;43.780;25.948;2022-12-16T11:15:54;100699.28;;;19.56;63.24
45285;BME280;31026;43.780;25.948;2022-12-16T11:18:47;100673.56;;;19.53;63.54
45285;BME280;31026;43.780;25.948;2022-12-16T11:21:28;100648.44;;;19.44;63.94
45285;BME280;31026;43.780;25.948;2022-12-16T11:24:15;100639.97;;;19.39;64.13
45285;BME280;31026;43.780;25.948;2022-12-16T11:26:57;100676.09;;;19.45;64.00
45285;BME280;31026;43.780;25.948;2022-12-16T11:32:34;100656.75;;;19.41;63.88
45285;BME280;31026;43.780;25.948;2022-12-16T11:35:15;100644.03;;;19.34;64.30
45285;BME280;31026;43.780;25.948;2022-12-16T11:37:57;100662.13;;;19.41;64.13
45285;BME280;31026;43.780;25.948;2022-12-16T11:40:42;100638.56;;;19.45;64.12
45285;BME280;31026;43.780;25.948;2022-12-16T11:43:23;100656.34;;;19.36;64.28
45285;BME280;31026;43.780;25.948;2022-12-16T11:46:07;100633.75;;;19.48;64.01
45285;BME280;31026;43.780;25.948;2022-12-16T11:48:49;100642.06;;;19.45;64.21
45285;BME280;31026;43.780;25.948;2022-12-16T11:51:34;100654.25;;;19.40;64.24
45285;BME280;31026;43.780;25.948;2022-12-16T11:54:16;100659.75;;;19.48;64.19
45285;BME280;31026;43.780;25.948;2022-12-16T11:57:01;100697.00;;;19.51;63.91
45285;BME280;31026;43.780;25.948;2022-12-16T11:59:52;100684.00;;;19.56;63.88
45285;BME280;31026;43.780;25.948;2022-12-16T12:02:36;100659.31;;;19.53;63.18
45285;BME280;31026;43.780;25.948;2022-12-16T12:05:21;100705.72;;;19.43;63.13
45285;BME280;31026;43.780;25.948;2022-12-16T12:08:04;100704.06;;;19.52;62.76
45285;BME280;31026;43.780;25.948;2022-12-16T12:10:52;100713.78;;;19.53;62.90
45285;BME280;31026;43.780;25.948;2022-12-16T12:13:44;100726.94;;;19.56;63.11
45285;BME280;31026;43.780;25.948;2022-12-16T12:16:30;100709.44;;;19.52;63.30
45285;BME280;31026;43.780;25.948;2022-12-16T12:19:15;100718.19;;;19.54;62.97
45285;BME280;31026;43.780;25.948;2022-12-16T12:21:59;100709.44;;;19.62;63.06
45285;BME280;31026;43.780;25.948;2022-12-16T12:24:44;100722.28;;;19.58;63.18
45285;BME280;31026;43.780;25.948;2022-12-16T12:27:28;100697.25;;;19.67;63.41
45285;BME280;31026;43.780;25.948;2022-12-16T12:30:14;100689.53;;;19.74;62.94
45285;BME280;31026;43.780;25.948;2022-12-16T12:32:59;100683.19;;;19.75;63.05
45285;BME280;31026;43.780;25.948;2022-12-16T12:35:48;100680.63;;;19.83;63.08
45285;BME280;31026;43.780;25.948;2022-12-16T12:38:34;100686.56;;;19.87;63.27
45285;BME280;31026;43.780;25.948;2022-12-16T12:41:21;100713.53;;;19.85;63.33
45285;BME280;31026;43.780;25.948;2022-12-16T12:44:05;100698.16;;;19.78;63.72
45285;BME280;31026;43.780;25.948;2022-12-16T12:46:51;100708.00;;;19.67;64.02
45285;BME280;31026;43.780;25.948;2022-12-16T12:49:37;100720.31;;;19.70;63.81
45285;BME280;31026;43.780;25.948;2022-12-16T12:52:24;100709.69;;;19.68;64.03
45285;BME280;31026;43.780;25.948;2022-12-16T12:55:24;100728.34;;;19.70;63.79
45285;BME280;31026;43.780;25.948;2022-12-16T12:58:09;100721.31;;;19.79;63.63
45285;BME280;31026;43.780;25.948;2022-12-16T13:00:52;100713.97;;;19.71;63.70
45285;BME280;31026;43.780;25.948;2022-12-16T13:03:38;100735.56;;;19.79;63.54
45285;BME280;31026;43.780;25.948;2022-12-16T13:06:22;100735.69;;;19.68;64.38
45285;BME280;31026;43.780;25.948;2022-12-16T13:09:20;100742.16;;;19.65;64.75
45285;BME280;31026;43.780;25.948;2022-12-16T13:15:01;100720.44;;;19.59;65.01
45285;BME280;31026;43.780;25.948;2022-12-16T13:20:40;100706.59;;;19.44;66.02
45285;BME280;31026;43.780;25.948;2022-12-16T13:23:21;100715.53;;;18.94;68.38
45285;BME280;31026;43.780;25.948;2022-12-16T13:26:08;100718.47;;;18.60;69.00
45285;BME280;31026;43.780;25.948;2022-12-16T13:29:01;100707.72;;;18.29;69.89
45285;BME280;31026;43.780;25.948;2022-12-16T13:31:55;100720.75;;;18.13;70.71
45285;BME280;31026;43.780;25.948;2022-12-16T13:34:39;100725.34;;;17.90;70.46
45285;BME280;31026;43.780;25.948;2022-12-16T13:37:22;100722.31;;;17.95;71.19
45285;BME280;31026;43.780;25.948;2022-12-16T13:40:04;100718.25;;;18.00;71.18
45285;BME280;31026;43.780;25.948;2022-12-16T13:42:51;100698.88;;;17.87;71.04
45285;BME280;31026;43.780;25.948;2022-12-16T13:45:34;100695.69;;;17.82;71.61
45285;BME280;31026;43.780;25.948;2022-12-16T13:48:28;100697.47;;;17.72;72.12
45285;BME280;31026;43.780;25.948;2022-12-16T13:51:16;100702.59;;;17.63;72.40
45285;BME280;31026;43.780;25.948;2022-12-16T13:54:19;100704.94;;;17.57;73.45
45285;BME280;31026;43.780;25.948;2022-12-16T13:57:11;100686.44;;;18.28;70.85